Time;durP1;ratioP1;P1;durP2;ratioP2;P2;SDS_P1;SDS_P2;PMS_P1;PMS_P2;Temp;Humidity;BMP_temperature;BMP_pressure;BME280_temperature;BME280_humidity;BME280_pressure;Samples;Min_cycle;Max_cycle;Signal;HPM_P1;HPM_P2
2023/09/27 00:00:10;;;;;;;5.72;5.20;;;14.50;99.90;;;;;;5008235;28;20080;-83
2023/09/27 00:02:38;;;;;;;7.50;6.30;;;14.50;99.90;;;;;;5015672;28;20695;-83
2023/09/27 00:05:06;;;;;;;7.03;6.32;;;14.50;99.90;;;;;;5015112;28;20029;-83
2023/09/27 00:07:33;;;;;;;6.80;6.20;;;14.50;99.90;;;;;;5022239;28;20064;-83
2023/09/27 00:09:59;;;;;;;7.22;6.25;;;14.50;99.90;;;;;;5012563;28;20368;-84
2023/09/27 00:12:24;;;;;;;6.50;5.85;;;14.50;99.90;;;;;;5015170;28;20030;-83
2023/09/27 00:14:50;;;;;;;6.50;5.90;;;14.50;99.90;;;;;;5015675;28;20467;-82
2023/09/27 00:17:15;;;;;;;7.30;6.65;;;14.40;99.90;;;;;;5018582;28;20014;-83
2023/09/27 00:19:41;;;;;;;6.75;6.15;;;14.40;99.90;;;;;;5017435;28;20022;-84
2023/09/27 00:22:08;;;;;;;6.35;5.75;;;14.40;99.90;;;;;;5020092;28;20033;-83
2023/09/27 00:24:34;;;;;;;6.97;6.28;;;14.40;99.90;;;;;;5019225;28;20029;-84
2023/09/27 00:26:59;;;;;;;7.03;6.32;;;14.40;99.90;;;;;;5011416;28;20031;-84
2023/09/27 00:29:25;;;;;;;6.22;5.60;;;14.30;99.90;;;;;;5016424;28;20018;-84
2023/09/27 00:31:51;;;;;;;7.50;6.80;;;14.30;99.90;;;;;;5010862;28;20032;-84
2023/09/27 00:34:16;;;;;;;6.90;6.20;;;14.30;99.90;;;;;;5012593;28;20085;-84
2023/09/27 00:36:42;;;;;;;6.53;5.93;;;14.30;99.90;;;;;;5007993;28;20014;-83
2023/09/27 00:39:08;;;;;;;6.38;5.82;;;14.20;99.90;;;;;;5015557;28;20389;-83
2023/09/27 00:41:33;;;;;;;8.05;6.53;;;14.20;99.90;;;;;;5000659;28;20026;-82
2023/09/27 00:43:59;;;;;;;6.88;6.15;;;14.20;99.90;;;;;;5010289;28;20014;-83
2023/09/27 00:46:24;;;;;;;6.53;5.93;;;14.20;99.90;;;;;;5009530;28;20057;-83
2023/09/27 00:48:50;;;;;;;7.60;6.80;;;14.10;99.90;;;;;;5019317;28;20067;-82
2023/09/27 00:51:16;;;;;;;6.13;5.60;;;14.10;99.90;;;;;;5014184;28;20063;-83
2023/09/27 00:53:44;;;;;;;7.57;6.88;;;14.10;99.90;;;;;;5010672;28;20109;-83
2023/09/27 00:56:10;;;;;;;6.70;6.10;;;14.10;99.90;;;;;;5010732;28;20025;-81
2023/09/27 00:58:37;;;;;;;7.20;6.38;;;14.00;99.90;;;;;;5007931;28;20025;-83
2023/09/27 01:01:03;;;;;;;8.00;6.15;;;14.00;99.90;;;;;;5016413;28;20013;-82
2023/09/27 01:03:29;;;;;;;6.57;5.85;;;13.90;99.90;;;;;;5030553;28;20028;-84
2023/09/27 01:05:55;;;;;;;7.68;6.45;;;13.90;99.90;;;;;;5016373;28;20505;-83
2023/09/27 01:08:21;;;;;;;7.38;5.68;;;13.90;99.90;;;;;;5019887;28;20040;-82
2023/09/27 01:10:47;;;;;;;6.38;5.88;;;13.80;99.90;;;;;;5016725;28;20273;-83
2023/09/27 01:13:13;;;;;;;7.97;6.20;;;13.80;99.90;;;;;;5014663;28;20080;-83
2023/09/27 01:15:38;;;;;;;7.35;6.65;;;13.80;99.90;;;;;;5009836;28;20022;-82
2023/09/27 01:18:04;;;;;;;7.10;6.50;;;13.80;99.90;;;;;;5012857;28;20534;-83
2023/09/27 01:20:32;;;;;;;7.55;6.82;;;13.80;99.90;;;;;;5016475;28;20036;-83
2023/09/27 01:23:01;;;;;;;6.28;5.72;;;13.70;99.90;;;;;;5019570;28;20405;-82
2023/09/27 01:25:32;;;;;;;8.65;7.20;;;13.70;99.90;;;;;;5008342;28;20024;-83
2023/09/27 01:28:02;;;;;;;6.70;6.00;;;13.70;99.90;;;;;;5008387;28;20022;-83
2023/09/27 01:30:34;;;;;;;6.70;6.10;;;13.70;99.90;;;;;;5026857;28;20028;-83
2023/09/27 01:33:04;;;;;;;8.55;7.20;;;13.70;99.90;;;;;;5014365;28;20036;-83
2023/09/27 01:35:30;;;;;;;7.15;6.45;;;13.70;99.90;;;;;;5015421;28;20014;-84
2023/09/27 01:37:56;;;;;;;7.97;6.50;;;13.70;99.90;;;;;;5006191;28;20023;-83
2023/09/27 01:40:26;;;;;;;7.70;7.00;;;13.60;99.90;;;;;;5017269;28;20045;-84
2023/09/27 01:42:52;;;;;;;8.30;6.95;;;13.60;99.90;;;;;;5023321;28;20446;-84
2023/09/27 01:45:17;;;;;;;7.15;6.45;;;13.60;99.90;;;;;;5013701;28;20034;-83
2023/09/27 01:47:44;;;;;;;7.95;7.15;;;13.60;99.90;;;;;;5013348;28;20540;-83
2023/09/27 01:50:10;;;;;;;7.88;7.07;;;13.60;99.90;;;;;;5016849;28;20044;-84
2023/09/27 01:52:35;;;;;;;7.20;6.50;;;13.60;99.90;;;;;;5016554;28;20025;-84
2023/09/27 01:55:03;;;;;;;8.15;7.13;;;13.60;99.90;;;;;;5007747;28;20569;-84
2023/09/27 01:57:28;;;;;;;7.95;7.15;;;13.50;99.90;;;;;;5012156;28;20079;-84
2023/09/27 01:59:54;;;;;;;9.40;8.48;;;13.50;99.90;;;;;;5008400;28;20018;-83
2023/09/27 02:02:19;;;;;;;8.45;7.65;;;13.50;99.90;;;;;;5008007;28;20030;-83
2023/09/27 02:04:45;;;;;;;8.25;7.45;;;13.50;99.90;;;;;;5008371;28;20036;-84
2023/09/27 02:07:10;;;;;;;7.70;7.00;;;13.40;99.90;;;;;;5007104;28;20018;-84
2023/09/27 02:09:36;;;;;;;7.55;6.85;;;13.40;99.90;;;;;;5005794;28;20037;-82
2023/09/27 02:12:01;;;;;;;9.10;8.20;;;13.30;99.90;;;;;;4997401;28;20598;-83
2023/09/27 02:14:27;;;;;;;7.70;7.00;;;13.30;99.90;;;;;;5014263;28;20072;-84
2023/09/27 02:16:52;;;;;;;9.48;7.53;;;13.30;99.90;;;;;;5010765;28;20026;-83
2023/09/27 02:19:18;;;;;;;7.65;6.95;;;13.20;99.90;;;;;;5002468;28;20478;-83
2023/09/27 02:21:43;;;;;;;7.88;7.07;;;13.20;99.90;;;;;;4998732;28;20030;-82
2023/09/27 02:24:09;;;;;;;7.95;7.25;;;13.20;99.90;;;;;;5004449;28;20018;-82
2023/09/27 02:26:36;;;;;;;8.30;7.50;;;13.10;99.90;;;;;;5006130;28;20033;-83
2023/09/27 02:29:02;;;;;;;8.45;7.65;;;13.10;99.90;;;;;;5010131;28;20092;-83
2023/09/27 02:31:27;;;;;;;7.78;7.07;;;13.10;99.90;;;;;;5007638;28;20482;-83
2023/09/27 02:33:53;;;;;;;9.02;8.00;;;13.00;99.90;;;;;;5008284;28;20079;-82
2023/09/27 02:36:18;;;;;;;9.05;8.15;;;13.00;99.90;;;;;;5003693;28;20030;-84
2023/09/27 02:38:44;;;;;;;9.63;8.63;;;13.00;99.90;;;;;;4998699;28;20033;-82
2023/09/27 02:41:09;;;;;;;10.40;7.78;;;13.00;99.90;;;;;;4998643;28;20061;-83
2023/09/27 02:43:35;;;;;;;7.55;6.85;;;12.90;99.90;;;;;;5008067;28;20086;-83
2023/09/27 02:46:01;;;;;;;8.98;8.15;;;12.90;99.90;;;;;;5005285;28;20113;-82
2023/09/27 02:48:26;;;;;;;8.40;7.60;;;12.90;99.90;;;;;;5010752;28;20045;-83
2023/09/27 02:50:58;;;;;;;9.25;8.20;;;12.80;99.90;;;;;;5013154;28;20039;-83
2023/09/27 02:53:23;;;;;;;10.73;8.57;;;12.80;99.90;;;;;;5010738;28;20022;-82
2023/09/27 02:55:49;;;;;;;8.30;7.60;;;12.80;99.90;;;;;;4995622;28;20568;-82
2023/09/27 02:58:15;;;;;;;8.80;7.93;;;12.70;99.90;;;;;;5004959;28;20014;-82
2023/09/27 03:00:41;;;;;;;9.77;8.32;;;12.70;99.90;;;;;;5014175;28;20033;-84
2023/09/27 03:03:08;;;;;;;8.40;7.60;;;12.70;99.90;;;;;;5000251;28;20606;-82
2023/09/27 03:05:38;;;;;;;8.52;7.63;;;12.60;99.90;;;;;;5006861;28;20091;-83
2023/09/27 03:08:04;;;;;;;8.50;7.70;;;12.60;99.90;;;;;;5006427;28;20026;-83
2023/09/27 03:10:30;;;;;;;8.20;7.50;;;12.60;99.90;;;;;;4999037;28;20490;-84
2023/09/27 03:12:58;;;;;;;8.82;8.02;;;12.60;99.90;;;;;;5013747;28;20547;-82
2023/09/27 03:15:24;;;;;;;9.23;7.78;;;12.60;99.90;;;;;;5011014;28;20068;-82
2023/09/27 03:17:49;;;;;;;11.43;9.23;;;12.50;99.90;;;;;;5005874;28;20050;-83
2023/09/27 03:20:18;;;;;;;8.98;8.07;;;12.50;99.90;;;;;;5012171;28;20041;-82
2023/09/27 03:22:45;;;;;;;8.60;7.72;;;12.50;99.90;;;;;;5006718;28;20029;-82
2023/09/27 03:25:11;;;;;;;9.15;8.25;;;12.50;99.90;;;;;;5006290;28;20031;-83
2023/09/27 03:27:37;;;;;;;8.55;7.70;;;12.50;99.90;;;;;;5018686;28;20018;-82
2023/09/27 03:30:04;;;;;;;8.10;7.40;;;12.50;99.90;;;;;;5011266;28;20029;-83
2023/09/27 03:32:31;;;;;;;8.85;7.95;;;12.40;99.90;;;;;;5002131;28;20081;-82
2023/09/27 03:34:57;;;;;;;9.90;8.35;;;12.40;99.90;;;;;;5015480;28;20122;-82
2023/09/27 03:37:23;;;;;;;9.70;8.30;;;12.40;99.90;;;;;;5012235;28;20125;-82
2023/09/27 03:39:52;;;;;;;10.40;8.52;;;12.40;99.90;;;;;;5012210;28;20026;-82
2023/09/27 03:42:20;;;;;;;9.52;8.63;;;12.40;99.90;;;;;;5014502;28;20080;-82
2023/09/27 03:44:47;;;;;;;7.50;6.85;;;12.30;99.90;;;;;;5011085;28;20030;-83
2023/09/27 03:47:12;;;;;;;11.00;9.07;;;12.40;99.90;;;;;;5007714;28;20030;-84
2023/09/27 03:49:40;;;;;;;9.13;7.50;;;12.30;99.90;;;;;;5010005;28;20029;-82
2023/09/27 03:52:06;;;;;;;9.13;8.30;;;12.30;99.90;;;;;;5005684;28;20424;-82
2023/09/27 03:54:32;;;;;;;8.68;7.88;;;12.30;99.90;;;;;;5004789;28;20032;-82
2023/09/27 03:56:58;;;;;;;10.07;9.13;;;12.30;99.90;;;;;;5021020;28;20515;-84
2023/09/27 03:59:24;;;;;;;8.85;7.95;;;12.30;99.90;;;;;;5006436;28;20569;-83
2023/09/27 04:01:49;;;;;;;9.70;8.52;;;12.30;99.90;;;;;;5001524;28;20027;-82
2023/09/27 04:04:15;;;;;;;9.82;8.80;;;12.30;99.90;;;;;;5011858;28;20024;-83
2023/09/27 04:06:40;;;;;;;8.55;7.75;;;12.30;99.90;;;;;;5007238;28;20533;-83
2023/09/27 04:09:08;;;;;;;9.90;8.45;;;12.20;99.90;;;;;;5011784;28;20053;-82
2023/09/27 04:11:33;;;;;;;10.38;9.27;;;12.20;99.90;;;;;;5016321;28;20052;-83
2023/09/27 04:13:59;;;;;;;8.57;7.63;;;12.20;99.90;;;;;;5009123;28;20045;-82
2023/09/27 04:16:28;;;;;;;10.00;9.00;;;12.20;99.90;;;;;;5003555;28;20080;-82
2023/09/27 04:18:53;;;;;;;9.13;8.23;;;12.20;99.90;;;;;;5004098;28;20029;-82
2023/09/27 04:21:19;;;;;;;9.27;8.38;;;12.20;99.90;;;;;;5006340;28;20014;-82
2023/09/27 04:23:56;;;;;;;10.35;9.35;;;12.10;99.90;;;;;;4998514;28;20058;-83
2023/09/27 04:26:26;;;;;;;9.52;8.55;;;12.10;99.90;;;;;;5013351;28;20026;-82
2023/09/27 04:28:52;;;;;;;9.32;8.38;;;12.10;99.90;;;;;;5005323;28;20022;-82
2023/09/27 04:31:18;;;;;;;11.77;8.32;;;12.10;99.90;;;;;;5006215;28;20031;-82
2023/09/27 04:33:44;;;;;;;9.18;8.27;;;12.00;99.90;;;;;;5014183;28;20041;-82
2023/09/27 04:36:17;;;;;;;10.43;9.43;;;12.00;99.90;;;;;;5015665;28;20014;-83
2023/09/27 04:38:46;;;;;;;10.27;9.25;;;12.00;99.90;;;;;;5017471;28;20486;-84
2023/09/27 04:41:16;;;;;;;9.45;8.63;;;12.00;99.90;;;;;;5023701;28;20046;-84
2023/09/27 04:43:42;;;;;;;9.63;8.30;;;12.00;99.90;;;;;;5009120;28;20631;-84
2023/09/27 04:46:11;;;;;;;11.90;9.45;;;12.00;99.90;;;;;;5001211;28;20054;-83
2023/09/27 04:48:36;;;;;;;10.32;9.20;;;11.90;99.90;;;;;;5008239;28;20049;-83
2023/09/27 04:51:03;;;;;;;10.93;9.05;;;12.00;99.90;;;;;;5005604;28;20079;-83
2023/09/27 04:53:30;;;;;;;9.55;8.65;;;11.90;99.90;;;;;;5000625;28;20026;-82
2023/09/27 04:55:56;;;;;;;9.30;8.40;;;11.90;99.90;;;;;;5011564;28;20030;-84
2023/09/27 04:58:22;;;;;;;8.32;7.53;;;11.90;99.90;;;;;;5003790;28;20533;-83
2023/09/27 05:00:47;;;;;;;11.45;8.88;;;11.90;99.90;;;;;;5006751;28;20109;-82
2023/09/27 05:03:13;;;;;;;9.32;8.32;;;11.90;99.90;;;;;;5015146;28;20117;-83
2023/09/27 05:05:38;;;;;;;9.43;8.52;;;11.90;99.90;;;;;;5017478;28;20493;-85
2023/09/27 05:08:04;;;;;;;9.65;8.73;;;11.90;99.90;;;;;;5006271;28;20091;-83
2023/09/27 05:10:30;;;;;;;9.10;7.82;;;11.90;99.90;;;;;;5005509;28;20030;-83
2023/09/27 05:12:55;;;;;;;10.70;9.65;;;11.80;99.90;;;;;;5001044;28;20022;-83
2023/09/27 05:15:21;;;;;;;9.07;8.20;;;11.90;99.90;;;;;;5010435;28;20030;-84
2023/09/27 05:17:46;;;;;;;12.10;9.77;;;11.80;99.90;;;;;;5002385;28;20070;-82
2023/09/27 05:20:13;;;;;;;10.93;9.00;;;11.80;99.90;;;;;;5003952;28;20073;-84
2023/09/27 05:22:39;;;;;;;9.00;8.20;;;11.80;99.90;;;;;;5021046;28;20301;-84
2023/09/27 05:25:06;;;;;;;10.27;9.20;;;11.80;99.90;;;;;;5003482;28;20017;-84
2023/09/27 05:27:31;;;;;;;9.77;8.77;;;11.70;99.90;;;;;;5002759;28;20030;-84
2023/09/27 05:29:57;;;;;;;10.20;9.25;;;11.80;99.90;;;;;;5015441;28;20072;-82
2023/09/27 05:32:23;;;;;;;9.80;8.80;;;11.80;99.90;;;;;;5016268;28;20398;-84
2023/09/27 05:34:50;;;;;;;9.95;8.95;;;11.80;99.90;;;;;;5014822;28;20034;-82
2023/09/27 05:37:16;;;;;;;9.13;8.23;;;11.80;99.90;;;;;;5021778;28;20076;-82
2023/09/27 05:39:42;;;;;;;9.23;8.23;;;11.80;99.90;;;;;;5017809;28;20122;-85
2023/09/27 05:42:07;;;;;;;9.05;8.05;;;11.70;99.90;;;;;;5009042;28;20682;-82
2023/09/27 05:44:33;;;;;;;9.40;8.50;;;11.80;99.90;;;;;;5004441;28;20022;-83
2023/09/27 05:46:58;;;;;;;8.93;8.13;;;11.80;99.90;;;;;;5009986;28;20013;-83
2023/09/27 05:49:25;;;;;;;8.68;7.88;;;11.80;99.90;;;;;;5023215;28;20024;-83
2023/09/27 05:51:52;;;;;;;9.52;8.52;;;11.80;99.90;;;;;;5009930;28;20065;-83
2023/09/27 05:54:21;;;;;;;9.85;8.68;;;11.80;99.90;;;;;;5016548;28;20022;-83
2023/09/27 05:56:51;;;;;;;10.65;9.15;;;11.80;99.90;;;;;;5009102;28;20197;-83
2023/09/27 05:59:17;;;;;;;10.98;8.50;;;11.80;99.90;;;;;;5021155;28;20038;-83
2023/09/27 06:01:43;;;;;;;10.23;9.23;;;11.90;99.90;;;;;;5021448;28;20025;-83
2023/09/27 06:04:09;;;;;;;9.75;8.80;;;11.90;99.90;;;;;;5017463;28;20044;-83
2023/09/27 06:06:36;;;;;;;10.75;9.70;;;12.00;99.90;;;;;;5022372;28;20017;-83
2023/09/27 06:09:05;;;;;;;14.20;10.80;;;12.00;99.90;;;;;;5017541;28;20528;-81
2023/09/27 06:11:32;;;;;;;11.73;10.63;;;12.10;99.90;;;;;;5016925;28;20024;-82
2023/09/27 06:13:58;;;;;;;12.05;10.77;;;12.10;99.90;;;;;;5020353;28;20120;-84
2023/09/27 06:16:24;;;;;;;12.52;10.68;;;12.20;99.90;;;;;;5010335;28;20118;-83
2023/09/27 06:18:50;;;;;;;12.15;10.27;;;12.20;99.90;;;;;;5010672;28;20481;-82
2023/09/27 06:21:15;;;;;;;11.40;10.23;;;12.20;99.90;;;;;;5001180;28;20121;-82
2023/09/27 06:23:41;;;;;;;10.60;9.48;;;12.20;99.90;;;;;;5018401;28;20037;-83
2023/09/27 06:26:07;;;;;;;12.68;10.20;;;12.30;99.90;;;;;;5014765;28;20033;-83
2023/09/27 06:28:33;;;;;;;12.05;9.85;;;12.30;99.90;;;;;;5010037;28;20053;-84
2023/09/27 06:30:59;;;;;;;11.52;9.63;;;12.30;99.90;;;;;;5023419;28;20039;-82
2023/09/27 06:33:25;;;;;;;10.55;9.45;;;12.30;99.90;;;;;;5019551;28;20100;-83
2023/09/27 06:35:51;;;;;;;13.73;9.77;;;12.30;99.90;;;;;;4999442;28;20133;-82
2023/09/27 06:38:21;;;;;;;10.90;9.82;;;12.40;99.90;;;;;;5008928;28;20018;-81
2023/09/27 06:40:48;;;;;;;11.02;9.95;;;12.40;99.90;;;;;;5005708;28;20057;-82
2023/09/27 06:43:14;;;;;;;10.70;9.52;;;12.40;99.90;;;;;;5012485;28;20044;-82
2023/09/27 06:45:40;;;;;;;12.45;10.93;;;12.40;99.90;;;;;;5004954;28;20026;-81
2023/09/27 06:48:07;;;;;;;12.65;10.75;;;12.50;99.90;;;;;;5007788;28;20026;-82
2023/09/27 06:50:32;;;;;;;11.02;9.93;;;12.60;99.90;;;;;;5026116;28;20033;-81
2023/09/27 06:52:58;;;;;;;12.13;10.93;;;12.60;99.90;;;;;;5019260;28;20014;-83
2023/09/27 06:55:24;;;;;;;11.95;10.65;;;12.60;99.90;;;;;;5007107;28;20034;-82
2023/09/27 06:57:51;;;;;;;10.10;9.15;;;12.70;99.90;;;;;;5001572;28;20050;-83
2023/09/27 07:00:24;;;;;;;10.63;9.65;;;12.70;99.90;;;;;;5008042;28;20525;-82
2023/09/27 07:02:50;;;;;;;11.98;10.73;;;12.80;99.90;;;;;;5014310;28;20092;-81
2023/09/27 07:05:16;;;;;;;12.48;11.15;;;12.80;99.90;;;;;;5013902;28;21301;-83
2023/09/27 07:07:42;;;;;;;11.73;10.23;;;12.90;99.90;;;;;;5018607;28;20033;-82
2023/09/27 07:10:09;;;;;;;12.85;11.45;;;12.90;99.90;;;;;;5018666;28;20340;-85
2023/09/27 07:12:37;;;;;;;12.73;11.00;;;13.00;99.90;;;;;;5010426;28;20030;-82
2023/09/27 07:15:12;;;;;;;13.20;11.32;;;13.10;99.90;;;;;;5013318;28;20028;-82
2023/09/27 07:17:38;;;;;;;11.88;10.35;;;13.10;99.90;;;;;;5005811;28;20530;-83
2023/09/27 07:20:27;;;;;;;13.07;11.68;;;13.20;99.90;;;;;;5018254;28;20025;-83
2023/09/27 07:22:56;;;;;;;12.32;11.10;;;13.30;99.90;;;;;;5015784;28;20309;-84
2023/09/27 07:25:22;;;;;;;12.07;10.88;;;13.40;99.90;;;;;;5025695;28;20026;-84
2023/09/27 07:27:48;;;;;;;12.57;11.07;;;13.40;99.90;;;;;;5015079;28;20030;-84
2023/09/27 07:30:18;;;;;;;12.30;11.02;;;13.50;99.90;;;;;;5026048;28;20032;-82
2023/09/27 07:32:47;;;;;;;12.80;11.50;;;13.60;99.90;;;;;;5031442;28;20030;-83
2023/09/27 07:35:16;;;;;;;16.65;12.73;;;13.70;99.90;;;;;;5035211;28;20029;-84
2023/09/27 07:37:42;;;;;;;14.27;12.45;;;13.80;99.90;;;;;;5015483;28;20133;-84
2023/09/27 07:40:10;;;;;;;12.93;10.75;;;13.90;99.90;;;;;;5010907;28;20507;-84
2023/09/27 07:42:41;;;;;;;11.98;10.77;;;14.00;99.90;;;;;;5014367;28;20053;-84
2023/09/27 07:45:14;;;;;;;13.43;11.30;;;14.00;99.90;;;;;;5014194;28;20401;-83
2023/09/27 07:47:39;;;;;;;14.32;11.98;;;14.20;99.90;;;;;;5008517;28;20018;-83
2023/09/27 07:50:05;;;;;;;12.50;11.27;;;14.20;99.90;;;;;;5005231;28;20037;-83
2023/09/27 07:52:31;;;;;;;11.73;10.10;;;14.40;99.90;;;;;;5008371;28;20017;-83
2023/09/27 07:54:58;;;;;;;11.88;10.68;;;14.50;99.90;;;;;;5004798;28;20038;-85
2023/09/27 07:57:24;;;;;;;13.25;11.80;;;14.60;99.90;;;;;;5010187;28;20022;-83
2023/09/27 07:59:51;;;;;;;13.07;11.68;;;14.70;99.90;;;;;;5018220;28;20021;-82
2023/09/27 08:02:17;;;;;;;13.75;12.13;;;14.90;99.90;;;;;;5012736;28;20022;-83
2023/09/27 08:04:42;;;;;;;13.70;12.27;;;15.00;99.90;;;;;;5016907;28;20589;-83
2023/09/27 08:07:10;;;;;;;12.63;11.30;;;15.20;99.90;;;;;;5013169;28;20026;-84
2023/09/27 08:09:38;;;;;;;12.90;11.60;;;15.30;99.90;;;;;;5014047;28;20282;-83
2023/09/27 08:12:07;;;;;;;12.95;11.00;;;15.50;99.90;;;;;;5014490;28;20057;-83
2023/09/27 08:14:36;;;;;;;12.65;11.05;;;15.60;99.90;;;;;;5013131;28;20031;-84
2023/09/27 08:17:02;;;;;;;14.20;11.77;;;15.80;99.90;;;;;;5018852;28;20014;-85
2023/09/27 08:19:28;;;;;;;14.48;12.98;;;15.90;99.90;;;;;;5014850;28;20135;-83
2023/09/27 08:21:55;;;;;;;13.77;12.32;;;16.10;99.90;;;;;;5021690;28;20025;-84
2023/09/27 08:24:21;;;;;;;14.23;12.80;;;16.20;99.90;;;;;;5019465;28;20010;-84
2023/09/27 08:26:47;;;;;;;14.18;11.57;;;16.40;99.90;;;;;;5017786;28;20028;-86
2023/09/27 08:29:13;;;;;;;11.85;10.65;;;16.40;99.90;;;;;;5032162;28;20010;-86
2023/09/27 08:31:39;;;;;;;11.75;10.65;;;16.50;99.90;;;;;;5025489;28;20032;-87
2023/09/27 08:34:05;;;;;;;12.45;11.15;;;16.70;99.90;;;;;;5024205;28;20362;-84
2023/09/27 08:36:30;;;;;;;11.63;9.88;;;16.80;99.90;;;;;;5015042;28;20163;-85
2023/09/27 08:38:56;;;;;;;13.82;11.73;;;16.80;99.90;;;;;;5021555;28;20021;-83
2023/09/27 08:41:23;;;;;;;11.75;10.55;;;16.90;99.90;;;;;;5015596;28;20041;-84
2023/09/27 08:43:50;;;;;;;12.77;11.57;;;17.00;99.90;;;;;;5017728;28;20046;-85
2023/09/27 08:46:18;;;;;;;11.68;10.48;;;17.10;99.90;;;;;;5024815;28;20034;-85
2023/09/27 08:48:44;;;;;;;10.60;9.52;;;17.10;99.90;;;;;;5020129;28;20026;-83
2023/09/27 08:51:10;;;;;;;12.25;9.80;;;17.20;99.90;;;;;;5014115;28;20037;-84
2023/09/27 08:53:38;;;;;;;9.18;8.20;;;17.30;99.90;;;;;;5022514;28;20040;-82
2023/09/27 08:56:06;;;;;;;12.23;7.80;;;17.30;99.90;;;;;;5024444;28;20090;-84
2023/09/27 08:58:34;;;;;;;9.13;7.78;;;17.40;99.90;;;;;;5017957;28;20050;-84
2023/09/27 09:01:00;;;;;;;9.65;7.78;;;17.50;99.90;;;;;;5025727;28;20553;-84
2023/09/27 09:03:26;;;;;;;7.07;6.47;;;17.60;99.90;;;;;;5017633;28;20017;-85
2023/09/27 09:05:52;;;;;;;6.70;5.97;;;17.70;99.90;;;;;;5026221;28;20125;-84
2023/09/27 09:08:19;;;;;;;7.32;6.63;;;17.70;99.90;;;;;;5016717;28;20078;-87
2023/09/27 09:10:45;;;;;;;9.60;6.72;;;17.90;99.90;;;;;;5024677;28;20026;-85
2023/09/27 09:13:11;;;;;;;7.22;6.22;;;18.00;99.90;;;;;;5021711;28;20089;-86
2023/09/27 09:15:40;;;;;;;6.95;6.30;;;18.00;99.90;;;;;;5022563;28;20018;-85
2023/09/27 09:18:28;;;;;;;9.18;6.72;;;18.10;99.90;;;;;;5029502;28;20026;-87
2023/09/27 09:20:54;;;;;;;7.93;7.13;;;18.20;99.90;;;;;;5015144;28;20022;-86
2023/09/27 09:23:34;;;;;;;8.13;5.47;;;18.30;99.90;;;;;;5027558;28;20020;-85
2023/09/27 09:26:05;;;;;;;8.70;5.75;;;18.40;99.90;;;;;;5012712;28;20038;-85
2023/09/27 09:28:31;;;;;;;7.05;6.05;;;18.40;99.90;;;;;;5010787;28;20018;-84
2023/09/27 09:31:03;;;;;;;6.47;5.88;;;18.50;99.90;;;;;;5048618;28;20455;-50
2023/09/27 09:33:29;;;;;;;8.82;6.38;;;18.60;99.90;;;;;;5030586;28;20440;-51
2023/09/27 09:35:56;;;;;;;6.53;5.63;;;18.80;99.90;;;;;;5025887;28;20061;-52
2023/09/27 09:38:30;;;;;;;5.45;4.93;;;18.80;99.90;;;;;;5029275;28;20030;-49
2023/09/27 09:40:57;;;;;;;6.40;5.03;;;18.90;99.90;;;;;;5027050;28;20503;-57
2023/09/27 09:43:31;;;;;;;8.35;5.05;;;19.00;99.90;;;;;;5030666;28;20100;-49
2023/09/27 09:45:57;;;;;;;5.72;4.45;;;19.10;99.90;;;;;;5029227;28;20022;-54
2023/09/27 09:48:23;;;;;;;7.22;5.20;;;19.10;99.90;;;;;;5030639;28;20083;-51
2023/09/27 09:50:49;;;;;;;5.57;4.60;;;19.20;99.90;;;;;;5026285;28;20033;-54
2023/09/27 09:53:16;;;;;;;4.55;4.15;;;19.30;99.90;;;;;;5033513;28;20029;-55
2023/09/27 09:55:46;;;;;;;4.95;3.92;;;19.30;99.90;;;;;;5025548;28;20242;-57
2023/09/27 09:58:42;;;;;;;4.00;3.60;;;19.30;99.90;;;;;;5029575;28;20037;-56
2023/09/27 10:01:12;;;;;;;3.88;3.58;;;19.40;99.90;;;;;;5026682;28;20038;-53
2023/09/27 10:03:40;;;;;;;7.32;3.75;;;19.40;99.90;;;;;;5027584;28;20037;-56
2023/09/27 10:06:08;;;;;;;4.35;3.95;;;19.50;99.90;;;;;;5022748;28;20307;-51
2023/09/27 10:08:37;;;;;;;4.85;3.67;;;19.60;99.90;;;;;;5030521;28;20070;-49
2023/09/27 10:11:05;;;;;;;4.90;3.53;;;19.70;99.90;;;;;;5031347;28;20434;-53
2023/09/27 10:13:39;;;;;;;8.77;4.45;;;19.80;99.90;;;;;;5026337;28;20029;-53
2023/09/27 10:16:05;;;;;;;5.18;4.15;;;19.80;99.90;;;;;;5032099;28;20021;-54
2023/09/27 10:18:33;;;;;;;5.18;3.90;;;19.90;99.90;;;;;;5027512;28;20021;-57
2023/09/27 10:23:38;;;;;;;4.90;3.13;;;20.00;99.90;;;;;;5033591;28;20025;-52
2023/09/27 10:26:28;;;;;;;3.92;3.20;;;20.20;99.90;;;;;;5027428;28;20037;-54
2023/09/27 10:29:06;;;;;;;4.88;3.28;;;20.20;99.90;;;;;;5029818;28;20053;-50
2023/09/27 10:32:00;;;;;;;3.55;3.25;;;20.20;99.90;;;;;;5030576;28;20096;-51
2023/09/27 10:34:26;;;;;;;4.97;3.22;;;20.20;99.90;;;;;;5033198;28;20032;-52
2023/09/27 10:36:52;;;;;;;6.00;3.10;;;20.20;99.90;;;;;;5032862;28;20382;-54
2023/09/27 10:39:18;;;;;;;3.90;2.75;;;20.20;99.90;;;;;;5025747;28;20028;-54
2023/09/27 10:41:46;;;;;;;4.80;2.97;;;20.20;99.90;;;;;;5019337;28;20510;-54
2023/09/27 10:44:13;;;;;;;3.33;2.85;;;20.20;99.90;;;;;;5016323;28;20508;-51
2023/09/27 10:46:43;;;;;;;2.97;2.58;;;20.20;99.90;;;;;;5019495;28;20231;-57
2023/09/27 10:49:09;;;;;;;3.08;2.55;;;20.20;99.90;;;;;;5015197;28;20029;-56
2023/09/27 10:51:35;;;;;;;4.38;2.53;;;20.20;99.90;;;;;;5018083;28;20661;-50
2023/09/27 10:54:06;;;;;;;3.60;2.97;;;20.30;99.90;;;;;;5014382;28;20122;-52
2023/09/27 10:56:32;;;;;;;5.45;3.42;;;20.30;99.90;;;;;;5005649;28;20024;-52
2023/09/27 10:58:57;;;;;;;3.70;2.85;;;20.40;99.90;;;;;;5015188;28;20037;-56
2023/09/27 11:01:23;;;;;;;4.85;2.70;;;20.40;99.90;;;;;;5012103;28;20402;-56
2023/09/27 11:04:12;;;;;;;3.70;3.10;;;20.40;99.90;;;;;;5017804;28;20030;-53
2023/09/27 11:06:37;;;;;;;3.85;2.88;;;20.50;99.90;;;;;;5011496;28;20119;-52
2023/09/27 11:09:12;;;;;;;3.30;2.67;;;20.60;99.90;;;;;;5017003;28;20655;-50
2023/09/27 11:11:38;;;;;;;4.40;2.92;;;20.60;99.90;;;;;;5016332;28;20590;-51
2023/09/27 11:14:04;;;;;;;4.38;3.25;;;20.70;99.90;;;;;;5017101;28;20025;-56
2023/09/27 11:16:30;;;;;;;3.28;2.85;;;20.70;99.90;;;;;;5010414;28;20029;-58
2023/09/27 11:18:56;;;;;;;6.03;2.75;;;20.80;99.90;;;;;;5016442;28;20022;-52
2023/09/27 11:21:28;;;;;;;4.78;3.20;;;20.80;99.90;;;;;;5018894;28;20037;-51
2023/09/27 11:24:01;;;;;;;5.13;2.88;;;20.90;99.90;;;;;;5014571;28;20030;-56
2023/09/27 11:26:31;;;;;;;6.93;2.83;;;20.90;99.90;;;;;;5013278;28;20033;-54
2023/09/27 11:29:03;;;;;;;4.28;3.08;;;21.00;99.90;;;;;;5012149;28;20091;-55
2023/09/27 11:31:30;;;;;;;4.38;3.17;;;21.00;99.90;;;;;;5030756;28;20033;-60
2023/09/27 11:34:15;;;;;;;4.28;3.25;;;21.10;99.90;;;;;;5011663;28;20662;-56
2023/09/27 11:36:48;;;;;;;4.53;2.95;;;21.10;99.90;;;;;;5016766;28;20020;-55
2023/09/27 11:39:15;;;;;;;5.15;3.10;;;21.20;99.90;;;;;;5009968;28;20030;-55
2023/09/27 11:41:43;;;;;;;3.08;2.47;;;21.20;99.90;;;;;;5016966;28;20116;-55
2023/09/27 11:44:19;;;;;;;3.13;2.65;;;21.20;99.90;;;;;;5015768;28;20029;-57
2023/09/27 11:46:45;;;;;;;3.38;2.65;;;21.20;99.90;;;;;;5018506;28;20029;-56
2023/09/27 11:49:10;;;;;;;4.25;2.97;;;21.20;99.90;;;;;;5013774;28;20025;-56
2023/09/27 11:51:36;;;;;;;3.85;3.10;;;21.20;99.90;;;;;;5015697;28;20021;-57
2023/09/27 11:54:04;;;;;;;4.50;2.88;;;21.20;99.90;;;;;;5016449;28;20061;-58
2023/09/27 11:56:30;;;;;;;5.60;2.67;;;21.20;99.90;;;;;;5008025;28;20022;-55
2023/09/27 11:58:56;;;;;;;4.63;3.03;;;21.20;99.90;;;;;;5011683;28;20061;-56
2023/09/27 12:01:21;;;;;;;3.03;2.72;;;21.20;99.90;;;;;;5011729;28;20036;-57
2023/09/27 12:03:47;;;;;;;4.20;3.10;;;21.30;99.90;;;;;;5020176;28;20108;-55
2023/09/27 12:06:12;;;;;;;5.45;3.45;;;21.30;99.90;;;;;;5018268;28;20106;-57
2023/09/27 12:08:38;;;;;;;5.13;2.88;;;21.30;99.90;;;;;;5014473;28;20021;-53
2023/09/27 12:11:04;;;;;;;3.50;2.20;;;21.30;99.90;;;;;;5015422;28;20672;-55
2023/09/27 12:13:30;;;;;;;3.63;2.67;;;21.30;99.90;;;;;;5014643;28;20085;-58
2023/09/27 12:15:59;;;;;;;3.72;2.25;;;21.30;99.90;;;;;;5017718;28;20112;-56
2023/09/27 12:18:25;;;;;;;3.65;2.25;;;21.40;99.90;;;;;;5013752;28;20033;-54
2023/09/27 12:20:51;;;;;;;4.63;2.60;;;21.40;99.90;;;;;;5016838;28;20478;-53
2023/09/27 12:23:16;;;;;;;3.05;2.70;;;21.40;99.90;;;;;;5012664;28;20033;-54
2023/09/27 12:25:42;;;;;;;2.67;2.47;;;21.40;99.90;;;;;;5017852;28;20029;-55
2023/09/27 12:28:08;;;;;;;4.90;2.97;;;21.50;99.90;;;;;;5014198;28;20081;-53
2023/09/27 12:30:33;;;;;;;3.70;2.92;;;21.60;99.90;;;;;;5007072;28;20466;-58
2023/09/27 12:32:59;;;;;;;4.30;2.95;;;21.70;99.90;;;;;;5019805;28;20474;-56
2023/09/27 12:35:24;;;;;;;3.30;2.58;;;21.80;99.90;;;;;;5018538;28;20228;-52
2023/09/27 12:37:50;;;;;;;3.55;2.67;;;21.80;99.90;;;;;;5012173;28;20034;-53
2023/09/27 12:40:16;;;;;;;2.97;2.72;;;21.90;99.90;;;;;;5021715;28;20075;-55
2023/09/27 12:42:41;;;;;;;7.47;3.55;;;21.90;99.90;;;;;;5015917;28;20018;-57
2023/09/27 12:45:08;;;;;;;3.88;2.90;;;21.90;99.90;;;;;;5019106;28;20030;-53